sensor_id;sensor_type;location;lat;lon;timestamp;P1;durP1;ratioP1;P2;durP2;ratioP2
17844;SDS011;9047;53.486;10.218;2023-04-03T00:00:17;9.20;;;1.98;;
17844;SDS011;9047;53.486;10.218;2023-04-03T00:02:44;6.07;;;1.90;;
17844;SDS011;9047;53.486;10.218;2023-04-03T00:05:16;7.18;;;2.10;;
17844;SDS011;9047;53.486;10.218;2023-04-03T00:07:48;8.63;;;2.33;;
17844;SDS011;9047;53.486;10.218;2023-04-03T00:10:17;7.05;;;2.33;;
17844;SDS011;9047;53.486;10.218;2023-04-03T00:12:47;6.30;;;1.95;;
17844;SDS011;9047;53.486;10.218;2023-04-03T00:15:18;8.88;;;2.40;;
17844;SDS011;9047;53.486;10.218;2023-04-03T00:17:51;7.22;;;2.08;;
17844;SDS011;9047;53.486;10.218;2023-04-03T00:20:21;8.10;;;2.10;;
17844;SDS011;9047;53.486;10.218;2023-04-03T00:22:49;7.55;;;2.10;;
17844;SDS011;9047;53.486;10.218;2023-04-03T00:25:19;8.35;;;2.15;;
17844;SDS011;9047;53.486;10.218;2023-04-03T00:27:54;5.78;;;2.10;;
17844;SDS011;9047;53.486;10.218;2023-04-03T00:30:22;6.60;;;2.17;;
17844;SDS011;9047;53.486;10.218;2023-04-03T00:32:54;6.97;;;2.38;;
17844;SDS011;9047;53.486;10.218;2023-04-03T00:35:23;6.00;;;2.25;;
17844;SDS011;9047;53.486;10.218;2023-04-03T00:37:53;9.45;;;2.28;;
17844;SDS011;9047;53.486;10.218;2023-04-03T00:40:27;8.15;;;2.40;;
17844;SDS011;9047;53.486;10.218;2023-04-03T00:43:05;5.63;;;2.25;;
17844;SDS011;9047;53.486;10.218;2023-04-03T00:45:39;10.20;;;2.10;;
17844;SDS011;9047;53.486;10.218;2023-04-03T00:48:13;8.23;;;2.47;;
17844;SDS011;9047;53.486;10.218;2023-04-03T00:50:43;5.57;;;2.10;;
17844;SDS011;9047;53.486;10.218;2023-04-03T00:53:17;10.68;;;2.28;;
17844;SDS011;9047;53.486;10.218;2023-04-03T00:55:49;11.43;;;2.35;;
17844;SDS011;9047;53.486;10.218;2023-04-03T00:58:22;7.63;;;2.50;;
17844;SDS011;9047;53.486;10.218;2023-04-03T01:00:55;7.38;;;2.33;;
17844;SDS011;9047;53.486;10.218;2023-04-03T01:03:29;9.52;;;2.42;;
17844;SDS011;9047;53.486;10.218;2023-04-03T01:05:57;8.30;;;2.35;;
17844;SDS011;9047;53.486;10.218;2023-04-03T01:08:26;7.65;;;2.67;;
17844;SDS011;9047;53.486;10.218;2023-04-03T01:10:58;7.85;;;2.65;;
17844;SDS011;9047;53.486;10.218;2023-04-03T01:13:31;10.30;;;2.35;;
17844;SDS011;9047;53.486;10.218;2023-04-03T01:16:02;7.35;;;3.05;;
17844;SDS011;9047;53.486;10.218;2023-04-03T01:18:34;10.80;;;2.50;;
17844;SDS011;9047;53.486;10.218;2023-04-03T01:24:21;7.13;;;2.17;;
17844;SDS011;9047;53.486;10.218;2023-04-03T01:26:57;8.18;;;2.60;;
17844;SDS011;9047;53.486;10.218;2023-04-03T01:29:30;7.78;;;2.60;;
17844;SDS011;9047;53.486;10.218;2023-04-03T01:34:42;7.72;;;2.53;;
17844;SDS011;9047;53.486;10.218;2023-04-03T01:37:15;8.25;;;2.45;;
17844;SDS011;9047;53.486;10.218;2023-04-03T01:39:44;9.23;;;2.60;;
17844;SDS011;9047;53.486;10.218;2023-04-03T01:42:15;8.45;;;2.20;;
17844;SDS011;9047;53.486;10.218;2023-04-03T01:44:44;10.98;;;2.80;;
17844;SDS011;9047;53.486;10.218;2023-04-03T01:47:17;9.27;;;2.92;;
17844;SDS011;9047;53.486;10.218;2023-04-03T01:49:50;6.65;;;2.22;;
17844;SDS011;9047;53.486;10.218;2023-04-03T01:52:21;7.55;;;2.17;;
17844;SDS011;9047;53.486;10.218;2023-04-03T01:54:48;10.63;;;2.40;;
17844;SDS011;9047;53.486;10.218;2023-04-03T01:57:17;8.23;;;2.40;;
17844;SDS011;9047;53.486;10.218;2023-04-03T01:59:46;6.75;;;2.60;;
17844;SDS011;9047;53.486;10.218;2023-04-03T02:05:01;6.00;;;2.25;;
17844;SDS011;9047;53.486;10.218;2023-04-03T02:07:30;9.77;;;2.60;;
17844;SDS011;9047;53.486;10.218;2023-04-03T02:09:58;7.07;;;2.10;;
17844;SDS011;9047;53.486;10.218;2023-04-03T02:12:27;11.32;;;2.38;;
17844;SDS011;9047;53.486;10.218;2023-04-03T02:14:54;6.00;;;2.35;;
17844;SDS011;9047;53.486;10.218;2023-04-03T02:17:24;5.30;;;2.10;;
17844;SDS011;9047;53.486;10.218;2023-04-03T02:19:58;6.95;;;2.22;;
17844;SDS011;9047;53.486;10.218;2023-04-03T02:22:26;7.93;;;2.33;;
17844;SDS011;9047;53.486;10.218;2023-04-03T02:24:58;7.80;;;3.22;;
17844;SDS011;9047;53.486;10.218;2023-04-03T02:27:31;8.68;;;2.70;;
17844;SDS011;9047;53.486;10.218;2023-04-03T02:30:03;7.53;;;2.40;;
17844;SDS011;9047;53.486;10.218;2023-04-03T02:32:36;5.43;;;2.25;;
17844;SDS011;9047;53.486;10.218;2023-04-03T02:35:08;4.90;;;2.42;;
17844;SDS011;9047;53.486;10.218;2023-04-03T02:37:35;8.88;;;2.30;;
17844;SDS011;9047;53.486;10.218;2023-04-03T02:40:04;10.48;;;2.70;;
17844;SDS011;9047;53.486;10.218;2023-04-03T02:42:32;6.85;;;2.47;;
17844;SDS011;9047;53.486;10.218;2023-04-03T02:45:03;7.50;;;2.40;;
17844;SDS011;9047;53.486;10.218;2023-04-03T02:47:36;6.30;;;2.22;;
17844;SDS011;9047;53.486;10.218;2023-04-03T02:50:08;9.60;;;2.88;;
17844;SDS011;9047;53.486;10.218;2023-04-03T02:52:35;9.48;;;2.35;;
17844;SDS011;9047;53.486;10.218;2023-04-03T02:55:04;8.32;;;2.33;;
17844;SDS011;9047;53.486;10.218;2023-04-03T02:57:33;7.50;;;2.67;;
17844;SDS011;9047;53.486;10.218;2023-04-03T03:00:05;6.43;;;1.95;;
17844;SDS011;9047;53.486;10.218;2023-04-03T03:02:34;9.77;;;2.42;;
17844;SDS011;9047;53.486;10.218;2023-04-03T03:05:05;8.10;;;2.17;;
17844;SDS011;9047;53.486;10.218;2023-04-03T03:07:46;7.88;;;2.38;;
17844;SDS011;9047;53.486;10.218;2023-04-03T03:10:15;6.80;;;2.28;;
17844;SDS011;9047;53.486;10.218;2023-04-03T03:12:49;6.28;;;2.05;;
17844;SDS011;9047;53.486;10.218;2023-04-03T03:15:18;9.48;;;2.20;;
17844;SDS011;9047;53.486;10.218;2023-04-03T03:18:00;5.95;;;2.20;;
17844;SDS011;9047;53.486;10.218;2023-04-03T03:20:29;6.50;;;2.20;;
17844;SDS011;9047;53.486;10.218;2023-04-03T03:22:56;8.70;;;2.03;;
17844;SDS011;9047;53.486;10.218;2023-04-03T03:25:26;10.48;;;2.33;;
17844;SDS011;9047;53.486;10.218;2023-04-03T03:27:59;5.85;;;2.20;;
17844;SDS011;9047;53.486;10.218;2023-04-03T03:30:27;7.40;;;2.20;;
17844;SDS011;9047;53.486;10.218;2023-04-03T03:33:02;6.63;;;2.15;;
17844;SDS011;9047;53.486;10.218;2023-04-03T03:35:31;5.15;;;2.30;;
17844;SDS011;9047;53.486;10.218;2023-04-03T03:37:58;5.25;;;2.22;;
17844;SDS011;9047;53.486;10.218;2023-04-03T03:40:32;6.45;;;2.05;;
17844;SDS011;9047;53.486;10.218;2023-04-03T03:43:07;7.95;;;2.17;;
17844;SDS011;9047;53.486;10.218;2023-04-03T03:45:41;8.65;;;2.20;;
17844;SDS011;9047;53.486;10.218;2023-04-03T03:48:11;7.55;;;2.30;;
17844;SDS011;9047;53.486;10.218;2023-04-03T03:50:46;10.10;;;2.78;;
17844;SDS011;9047;53.486;10.218;2023-04-03T03:53:18;11.10;;;2.33;;
17844;SDS011;9047;53.486;10.218;2023-04-03T03:55:47;7.60;;;2.30;;
17844;SDS011;9047;53.486;10.218;2023-04-03T03:58:17;4.10;;;2.22;;
17844;SDS011;9047;53.486;10.218;2023-04-03T04:00:51;8.80;;;2.40;;
17844;SDS011;9047;53.486;10.218;2023-04-03T04:03:21;7.10;;;2.15;;
17844;SDS011;9047;53.486;10.218;2023-04-03T04:05:51;9.07;;;2.60;;
17844;SDS011;9047;53.486;10.218;2023-04-03T04:08:23;7.72;;;2.20;;
17844;SDS011;9047;53.486;10.218;2023-04-03T04:10:55;6.53;;;2.10;;
17844;SDS011;9047;53.486;10.218;2023-04-03T04:13:26;6.28;;;2.20;;
17844;SDS011;9047;53.486;10.218;2023-04-03T04:15:58;6.53;;;2.17;;
17844;SDS011;9047;53.486;10.218;2023-04-03T04:18:30;12.15;;;2.30;;
17844;SDS011;9047;53.486;10.218;2023-04-03T04:20:59;7.25;;;2.05;;
17844;SDS011;9047;53.486;10.218;2023-04-03T04:23:26;4.78;;;1.83;;
17844;SDS011;9047;53.486;10.218;2023-04-03T04:26:04;5.57;;;1.85;;
17844;SDS011;9047;53.486;10.218;2023-04-03T04:28:40;9.10;;;2.20;;
17844;SDS011;9047;53.486;10.218;2023-04-03T04:31:07;8.45;;;2.22;;
17844;SDS011;9047;53.486;10.218;2023-04-03T04:33:39;8.20;;;1.95;;
17844;SDS011;9047;53.486;10.218;2023-04-03T04:36:21;7.75;;;2.05;;
17844;SDS011;9047;53.486;10.218;2023-04-03T04:38:47;5.65;;;2.20;;
17844;SDS011;9047;53.486;10.218;2023-04-03T04:41:17;7.25;;;2.33;;
17844;SDS011;9047;53.486;10.218;2023-04-03T04:43:46;8.70;;;2.38;;
17844;SDS011;9047;53.486;10.218;2023-04-03T04:46:15;4.72;;;1.58;;
17844;SDS011;9047;53.486;10.218;2023-04-03T04:48:42;6.03;;;2.30;;
17844;SDS011;9047;53.486;10.218;2023-04-03T04:51:12;7.78;;;2.10;;
17844;SDS011;9047;53.486;10.218;2023-04-03T04:53:41;8.23;;;2.00;;
17844;SDS011;9047;53.486;10.218;2023-04-03T04:56:10;6.15;;;2.00;;
17844;SDS011;9047;53.486;10.218;2023-04-03T04:58:38;6.18;;;2.10;;
17844;SDS011;9047;53.486;10.218;2023-04-03T05:01:10;7.38;;;1.92;;
17844;SDS011;9047;53.486;10.218;2023-04-03T05:03:40;6.78;;;1.90;;
17844;SDS011;9047;53.486;10.218;2023-04-03T05:06:08;7.25;;;1.92;;
17844;SDS011;9047;53.486;10.218;2023-04-03T05:08:37;6.72;;;2.30;;
17844;SDS011;9047;53.486;10.218;2023-04-03T05:11:08;5.63;;;1.95;;
17844;SDS011;9047;53.486;10.218;2023-04-03T05:13:40;9.80;;;2.25;;
17844;SDS011;9047;53.486;10.218;2023-04-03T05:16:09;8.40;;;2.20;;
17844;SDS011;9047;53.486;10.218;2023-04-03T05:18:42;8.85;;;2.30;;
17844;SDS011;9047;53.486;10.218;2023-04-03T05:21:26;9.02;;;2.17;;
17844;SDS011;9047;53.486;10.218;2023-04-03T05:23:59;7.28;;;2.22;;
17844;SDS011;9047;53.486;10.218;2023-04-03T05:26:28;9.05;;;2.58;;
17844;SDS011;9047;53.486;10.218;2023-04-03T05:28:55;7.82;;;2.40;;
17844;SDS011;9047;53.486;10.218;2023-04-03T05:31:22;12.65;;;2.30;;
17844;SDS011;9047;53.486;10.218;2023-04-03T05:33:50;5.65;;;2.50;;
17844;SDS011;9047;53.486;10.218;2023-04-03T05:36:17;5.53;;;2.05;;
17844;SDS011;9047;53.486;10.218;2023-04-03T05:38:50;8.05;;;2.10;;
17844;SDS011;9047;53.486;10.218;2023-04-03T05:41:19;6.85;;;2.20;;
17844;SDS011;9047;53.486;10.218;2023-04-03T05:43:50;7.60;;;2.13;;
17844;SDS011;9047;53.486;10.218;2023-04-03T05:46:18;7.97;;;2.10;;
17844;SDS011;9047;53.486;10.218;2023-04-03T05:48:47;11.68;;;2.60;;
17844;SDS011;9047;53.486;10.218;2023-04-03T05:51:14;7.32;;;2.35;;
17844;SDS011;9047;53.486;10.218;2023-04-03T05:53:43;9.07;;;2.28;;
17844;SDS011;9047;53.486;10.218;2023-04-03T05:56:14;13.30;;;2.47;;
17844;SDS011;9047;53.486;10.218;2023-04-03T05:58:43;14.30;;;2.80;;
17844;SDS011;9047;53.486;10.218;2023-04-03T06:01:10;10.45;;;2.63;;
17844;SDS011;9047;53.486;10.218;2023-04-03T06:03:37;9.52;;;2.22;;
17844;SDS011;9047;53.486;10.218;2023-04-03T06:06:05;7.80;;;2.25;;
17844;SDS011;9047;53.486;10.218;2023-04-03T06:08:33;5.97;;;2.03;;
17844;SDS011;9047;53.486;10.218;2023-04-03T06:11:00;8.32;;;2.30;;
17844;SDS011;9047;53.486;10.218;2023-04-03T06:13:29;5.65;;;2.00;;
17844;SDS011;9047;53.486;10.218;2023-04-03T06:15:58;12.40;;;2.08;;
17844;SDS011;9047;53.486;10.218;2023-04-03T06:18:25;5.88;;;1.75;;
17844;SDS011;9047;53.486;10.218;2023-04-03T06:20:53;5.07;;;1.67;;
17844;SDS011;9047;53.486;10.218;2023-04-03T06:23:20;4.63;;;1.80;;
17844;SDS011;9047;53.486;10.218;2023-04-03T06:25:47;5.90;;;2.20;;
17844;SDS011;9047;53.486;10.218;2023-04-03T06:28:15;6.10;;;1.95;;
17844;SDS011;9047;53.486;10.218;2023-04-03T06:30:44;6.80;;;1.90;;
17844;SDS011;9047;53.486;10.218;2023-04-03T06:33:12;5.60;;;1.67;;
17844;SDS011;9047;53.486;10.218;2023-04-03T06:35:39;6.68;;;1.80;;
17844;SDS011;9047;53.486;10.218;2023-04-03T06:38:06;5.35;;;1.70;;
17844;SDS011;9047;53.486;10.218;2023-04-03T06:40:35;7.70;;;1.77;;
17844;SDS011;9047;53.486;10.218;2023-04-03T06:43:05;6.18;;;1.83;;
17844;SDS011;9047;53.486;10.218;2023-04-03T06:45:43;3.45;;;1.70;;
17844;SDS011;9047;53.486;10.218;2023-04-03T06:48:14;5.35;;;1.55;;
17844;SDS011;9047;53.486;10.218;2023-04-03T06:50:41;3.85;;;1.40;;
17844;SDS011;9047;53.486;10.218;2023-04-03T06:53:09;5.88;;;1.58;;
17844;SDS011;9047;53.486;10.218;2023-04-03T06:55:37;3.78;;;1.73;;
17844;SDS011;9047;53.486;10.218;2023-04-03T06:58:04;6.45;;;1.70;;
17844;SDS011;9047;53.486;10.218;2023-04-03T07:00:31;4.70;;;1.60;;
17844;SDS011;9047;53.486;10.218;2023-04-03T07:02:58;5.82;;;1.50;;
17844;SDS011;9047;53.486;10.218;2023-04-03T07:05:27;5.13;;;1.70;;
17844;SDS011;9047;53.486;10.218;2023-04-03T07:07:54;5.60;;;1.45;;
17844;SDS011;9047;53.486;10.218;2023-04-03T07:10:21;4.10;;;1.70;;
17844;SDS011;9047;53.486;10.218;2023-04-03T07:12:50;6.30;;;1.50;;
17844;SDS011;9047;53.486;10.218;2023-04-03T07:15:17;3.92;;;1.65;;
17844;SDS011;9047;53.486;10.218;2023-04-03T07:17:45;4.57;;;1.52;;
17844;SDS011;9047;53.486;10.218;2023-04-03T07:20:15;4.82;;;1.40;;
17844;SDS011;9047;53.486;10.218;2023-04-03T07:22:45;3.72;;;1.20;;
17844;SDS011;9047;53.486;10.218;2023-04-03T07:25:15;3.85;;;1.40;;
17844;SDS011;9047;53.486;10.218;2023-04-03T07:27:42;2.83;;;1.20;;
17844;SDS011;9047;53.486;10.218;2023-04-03T07:30:10;5.40;;;1.50;;
17844;SDS011;9047;53.486;10.218;2023-04-03T07:32:39;4.72;;;1.50;;
17844;SDS011;9047;53.486;10.218;2023-04-03T07:35:06;4.60;;;1.60;;
17844;SDS011;9047;53.486;10.218;2023-04-03T07:37:34;2.88;;;1.40;;
17844;SDS011;9047;53.486;10.218;2023-04-03T07:40:03;3.92;;;1.48;;
17844;SDS011;9047;53.486;10.218;2023-04-03T07:42:31;5.38;;;1.48;;
17844;SDS011;9047;53.486;10.218;2023-04-03T07:45:01;5.15;;;1.30;;
17844;SDS011;9047;53.486;10.218;2023-04-03T07:47:30;5.82;;;1.60;;
17844;SDS011;9047;53.486;10.218;2023-04-03T07:49:57;4.60;;;1.40;;
17844;SDS011;9047;53.486;10.218;2023-04-03T07:52:25;3.60;;;1.20;;
17844;SDS011;9047;53.486;10.218;2023-04-03T07:54:52;2.67;;;1.20;;
17844;SDS011;9047;53.486;10.218;2023-04-03T07:59:53;3.08;;;1.27;;
17844;SDS011;9047;53.486;10.218;2023-04-03T08:02:20;4.47;;;1.20;;
17844;SDS011;9047;53.486;10.218;2023-04-03T08:04:47;3.50;;;1.10;;
17844;SDS011;9047;53.486;10.218;2023-04-03T08:07:16;3.45;;;1.10;;
17844;SDS011;9047;53.486;10.218;2023-04-03T08:09:45;3.95;;;1.00;;
17844;SDS011;9047;53.486;10.218;2023-04-03T08:12:18;3.55;;;1.10;;
17844;SDS011;9047;53.486;10.218;2023-04-03T08:14:47;4.10;;;1.23;;
17844;SDS011;9047;53.486;10.218;2023-04-03T08:17:17;5.28;;;1.00;;
17844;SDS011;9047;53.486;10.218;2023-04-03T08:19:44;7.00;;;1.23;;
17844;SDS011;9047;53.486;10.218;2023-04-03T08:22:12;2.03;;;0.95;;
17844;SDS011;9047;53.486;10.218;2023-04-03T08:24:39;3.47;;;1.00;;
17844;SDS011;9047;53.486;10.218;2023-04-03T08:27:06;2.88;;;1.10;;
17844;SDS011;9047;53.486;10.218;2023-04-03T08:29:33;1.40;;;0.80;;
17844;SDS011;9047;53.486;10.218;2023-04-03T08:32:04;2.50;;;0.88;;
17844;SDS011;9047;53.486;10.218;2023-04-03T08:34:33;3.75;;;1.00;;
17844;SDS011;9047;53.486;10.218;2023-04-03T08:37:01;2.92;;;0.93;;
17844;SDS011;9047;53.486;10.218;2023-04-03T08:39:30;4.40;;;0.90;;
17844;SDS011;9047;53.486;10.218;2023-04-03T08:42:02;4.07;;;1.10;;
17844;SDS011;9047;53.486;10.218;2023-04-03T08:44:47;1.95;;;0.88;;
17844;SDS011;9047;53.486;10.218;2023-04-03T08:47:23;2.80;;;0.90;;
17844;SDS011;9047;53.486;10.218;2023-04-03T08:49:53;2.78;;;1.08;;
17844;SDS011;9047;53.486;10.218;2023-04-03T08:52:27;1.70;;;0.80;;
17844;SDS011;9047;53.486;10.218;2023-04-03T08:55:04;3.90;;;0.90;;
17844;SDS011;9047;53.486;10.218;2023-04-03T08:57:46;2.75;;;0.90;;
17844;SDS011;9047;53.486;10.218;2023-04-03T09:00:20;2.55;;;0.80;;
17844;SDS011;9047;53.486;10.218;2023-04-03T09:02:52;2.00;;;0.93;;
17844;SDS011;9047;53.486;10.218;2023-04-03T09:05:24;1.55;;;0.70;;
17844;SDS011;9047;53.486;10.218;2023-04-03T09:08:04;3.78;;;1.00;;
17844;SDS011;9047;53.486;10.218;2023-04-03T09:10:38;2.40;;;0.75;;
17844;SDS011;9047;53.486;10.218;2023-04-03T09:13:10;3.90;;;1.10;;
17844;SDS011;9047;53.486;10.218;2023-04-03T09:15:46;2.42;;;0.88;;
17844;SDS011;9047;53.486;10.218;2023-04-03T09:18:18;1.92;;;0.80;;
17844;SDS011;9047;53.486;10.218;2023-04-03T09:20:49;1.98;;;0.90;;
17844;SDS011;9047;53.486;10.218;2023-04-03T09:23:26;2.65;;;0.70;;
17844;SDS011;9047;53.486;10.218;2023-04-03T09:25:58;2.35;;;0.93;;
17844;SDS011;9047;53.486;10.218;2023-04-03T09:28:29;2.35;;;0.80;;
17844;SDS011;9047;53.486;10.218;2023-04-03T09:30:58;3.05;;;0.70;;
17844;SDS011;9047;53.486;10.218;2023-04-03T09:33:28;3.08;;;1.00;;
17844;SDS011;9047;53.486;10.218;2023-04-03T09:35:57;3.03;;;0.90;;
17844;SDS011;9047;53.486;10.218;2023-04-03T09:38:24;1.95;;;0.77;;
17844;SDS011;9047;53.486;10.218;2023-04-03T09:41:04;1.75;;;0.85;;
17844;SDS011;9047;53.486;10.218;2023-04-03T09:43:32;1.83;;;0.70;;
17844;SDS011;9047;53.486;10.218;2023-04-03T09:46:17;3.20;;;1.10;;
17844;SDS011;9047;53.486;10.218;2023-04-03T09:48:55;3.10;;;1.17;;
17844;SDS011;9047;53.486;10.218;2023-04-03T09:51:24;2.15;;;0.90;;
17844;SDS011;9047;53.486;10.218;2023-04-03T09:53:53;2.15;;;0.90;;
17844;SDS011;9047;53.486;10.218;2023-04-03T09:56:22;0.98;;;0.82;;
17844;SDS011;9047;53.486;10.218;2023-04-03T09:59:06;2.05;;;0.73;;
17844;SDS011;9047;53.486;10.218;2023-04-03T10:01:41;1.70;;;1.00;;
17844;SDS011;9047;53.486;10.218;2023-04-03T10:04:22;2.67;;;0.93;;
17844;SDS011;9047;53.486;10.218;2023-04-03T10:06:51;2.97;;;1.08;;
17844;SDS011;9047;53.486;10.218;2023-04-03T10:09:22;2.13;;;0.80;;
17844;SDS011;9047;53.486;10.218;2023-04-03T10:11:57;3.20;;;0.88;;
17844;SDS011;9047;53.486;10.218;2023-04-03T10:14:26;3.60;;;0.90;;
17844;SDS011;9047;53.486;10.218;2023-04-03T10:16:57;5.07;;;1.20;;
17844;SDS011;9047;53.486;10.218;2023-04-03T10:19:39;3.33;;;1.08;;
17844;SDS011;9047;53.486;10.218;2023-04-03T10:22:12;3.10;;;1.00;;
17844;SDS011;9047;53.486;10.218;2023-04-03T10:24:50;4.00;;;1.08;;
17844;SDS011;9047;53.486;10.218;2023-04-03T10:27:29;2.78;;;1.00;;
17844;SDS011;9047;53.486;10.218;2023-04-03T10:30:09;3.20;;;1.02;;
17844;SDS011;9047;53.486;10.218;2023-04-03T10:33:10;5.40;;;1.20;;
17844;SDS011;9047;53.486;10.218;2023-04-03T10:35:51;2.35;;;1.00;;
17844;SDS011;9047;53.486;10.218;2023-04-03T10:38:32;1.45;;;0.90;;
17844;SDS011;9047;53.486;10.218;2023-04-03T10:41:12;3.90;;;1.08;;
17844;SDS011;9047;53.486;10.218;2023-04-03T10:43:43;2.42;;;1.15;;
17844;SDS011;9047;53.486;10.218;2023-04-03T10:46:18;2.85;;;1.30;;
17844;SDS011;9047;53.486;10.218;2023-04-03T10:48:53;2.03;;;0.90;;
17844;SDS011;9047;53.486;10.218;2023-04-03T10:51:34;2.72;;;1.00;;
17844;SDS011;9047;53.486;10.218;2023-04-03T10:54:08;3.65;;;0.90;;
17844;SDS011;9047;53.486;10.218;2023-04-03T10:56:39;2.38;;;0.90;;
17844;SDS011;9047;53.486;10.218;2023-04-03T10:59:16;2.33;;;1.08;;
17844;SDS011;9047;53.486;10.218;2023-04-03T11:01:52;2.90;;;0.90;;
17844;SDS011;9047;53.486;10.218;2023-04-03T11:04:23;2.35;;;0.90;;
17844;SDS011;9047;53.486;10.218;2023-04-03T11:06:57;1.60;;;0.82;;
17844;SDS011;9047;53.486;10.218;2023-04-03T11:09:33;2.60;;;1.10;;
17844;SDS011;9047;53.486;10.218;2023-04-03T11:12:04;2.53;;;0.85;;
17844;SDS011;9047;53.486;10.218;2023-04-03T11:14:38;1.95;;;1.00;;
17844;SDS011;9047;53.486;10.218;2023-04-03T11:17:09;3.10;;;1.00;;
17844;SDS011;9047;53.486;10.218;2023-04-03T11:19:48;2.33;;;1.10;;
17844;SDS011;9047;53.486;10.218;2023-04-03T11:22:28;3.83;;;1.40;;
17844;SDS011;9047;53.486;10.218;2023-04-03T11:24:59;1.25;;;0.88;;
17844;SDS011;9047;53.486;10.218;2023-04-03T11:27:33;2.35;;;1.00;;
17844;SDS011;9047;53.486;10.218;2023-04-03T11:30:07;1.65;;;0.80;;
17844;SDS011;9047;53.486;10.218;2023-04-03T11:32:54;3.25;;;0.98;;
17844;SDS011;9047;53.486;10.218;2023-04-03T11:35:36;3.58;;;0.95;;
17844;SDS011;9047;53.486;10.218;2023-04-03T11:38:14;1.70;;;0.95;;
17844;SDS011;9047;53.486;10.218;2023-04-03T11:40:47;3.30;;;0.90;;
17844;SDS011;9047;53.486;10.218;2023-04-03T11:43:20;2.72;;;0.80;;
17844;SDS011;9047;53.486;10.218;2023-04-03T11:45:55;5.03;;;1.20;;
17844;SDS011;9047;53.486;10.218;2023-04-03T11:48:43;4.53;;;0.90;;
17844;SDS011;9047;53.486;10.218;2023-04-03T11:58:01;2.30;;;0.80;;
17844;SDS011;9047;53.486;10.218;2023-04-03T12:09:27;2.38;;;0.90;;
17844;SDS011;9047;53.486;10.218;2023-04-03T12:11:59;2.10;;;0.80;;
17844;SDS011;9047;53.486;10.218;2023-04-03T12:14:31;3.42;;;0.80;;
17844;SDS011;9047;53.486;10.218;2023-04-03T12:17:02;1.88;;;0.90;;
17844;SDS011;9047;53.486;10.218;2023-04-03T12:19:35;3.50;;;0.93;;
17844;SDS011;9047;53.486;10.218;2023-04-03T12:22:15;4.35;;;1.15;;
17844;SDS011;9047;53.486;10.218;2023-04-03T12:24:46;4.05;;;1.10;;
17844;SDS011;9047;53.486;10.218;2023-04-03T12:27:21;3.25;;;0.80;;
17844;SDS011;9047;53.486;10.218;2023-04-03T12:30:04;3.13;;;0.98;;
17844;SDS011;9047;53.486;10.218;2023-04-03T12:35:43;2.78;;;0.90;;
17844;SDS011;9047;53.486;10.218;2023-04-03T12:41:25;3.28;;;1.05;;
17844;SDS011;9047;53.486;10.218;2023-04-03T12:44:12;3.35;;;1.20;;
17844;SDS011;9047;53.486;10.218;2023-04-03T12:47:16;5.47;;;1.00;;
17844;SDS011;9047;53.486;10.218;2023-04-03T12:49:50;2.97;;;1.20;;
17844;SDS011;9047;53.486;10.218;2023-04-03T12:52:25;3.45;;;0.82;;
17844;SDS011;9047;53.486;10.218;2023-04-03T12:55:08;2.83;;;0.90;;
17844;SDS011;9047;53.486;10.218;2023-04-03T12:57:45;2.45;;;1.20;;
17844;SDS011;9047;53.486;10.218;2023-04-03T13:00:27;3.97;;;1.02;;
17844;SDS011;9047;53.486;10.218;2023-04-03T13:02:59;3.30;;;0.90;;
17844;SDS011;9047;53.486;10.218;2023-04-03T13:05:27;2.95;;;0.85;;
17844;SDS011;9047;53.486;10.218;2023-04-03T13:07:58;2.22;;;0.90;;
17844;SDS011;9047;53.486;10.218;2023-04-03T13:10:28;3.45;;;0.95;;
17844;SDS011;9047;53.486;10.218;2023-04-03T13:12:57;2.95;;;0.80;;
17844;SDS011;9047;53.486;10.218;2023-04-03T13:15:26;4.65;;;1.10;;
17844;SDS011;9047;53.486;10.218;2023-04-03T13:17:56;3.75;;;0.88;;
17844;SDS011;9047;53.486;10.218;2023-04-03T13:20:26;2.80;;;1.00;;
17844;SDS011;9047;53.486;10.218;2023-04-03T13:22:56;3.53;;;1.38;;
17844;SDS011;9047;53.486;10.218;2023-04-03T13:25:30;1.02;;;0.73;;
17844;SDS011;9047;53.486;10.218;2023-04-03T13:28:01;1.58;;;0.90;;
17844;SDS011;9047;53.486;10.218;2023-04-03T13:30:30;3.60;;;0.90;;
17844;SDS011;9047;53.486;10.218;2023-04-03T13:33:03;1.98;;;0.90;;
17844;SDS011;9047;53.486;10.218;2023-04-03T13:35:36;1.60;;;0.90;;
17844;SDS011;9047;53.486;10.218;2023-04-03T13:38:06;2.15;;;0.93;;
17844;SDS011;9047;53.486;10.218;2023-04-03T13:40:48;1.90;;;0.82;;
17844;SDS011;9047;53.486;10.218;2023-04-03T13:43:17;3.58;;;0.82;;
17844;SDS011;9047;53.486;10.218;2023-04-03T13:45:53;2.70;;;0.90;;
17844;SDS011;9047;53.486;10.218;2023-04-03T13:48:23;3.03;;;0.90;;
17844;SDS011;9047;53.486;10.218;2023-04-03T13:51:04;3.05;;;0.88;;
17844;SDS011;9047;53.486;10.218;2023-04-03T13:53:33;3.38;;;1.00;;
17844;SDS011;9047;53.486;10.218;2023-04-03T13:56:09;2.40;;;0.80;;
17844;SDS011;9047;53.486;10.218;2023-04-03T13:58:52;4.50;;;0.85;;
17844;SDS011;9047;53.486;10.218;2023-04-03T14:01:25;1.20;;;0.70;;
17844;SDS011;9047;53.486;10.218;2023-04-03T14:03:59;3.55;;;0.85;;
17844;SDS011;9047;53.486;10.218;2023-04-03T14:06:29;3.17;;;1.00;;
17844;SDS011;9047;53.486;10.218;2023-04-03T14:08:56;1.27;;;0.80;;
17844;SDS011;9047;53.486;10.218;2023-04-03T14:11:24;2.88;;;0.90;;
17844;SDS011;9047;53.486;10.218;2023-04-03T14:13:57;2.10;;;1.10;;
17844;SDS011;9047;53.486;10.218;2023-04-03T14:16:28;3.95;;;1.00;;
17844;SDS011;9047;53.486;10.218;2023-04-03T14:18:57;3.00;;;1.05;;
17844;SDS011;9047;53.486;10.218;2023-04-03T14:21:24;4.03;;;1.02;;
17844;SDS011;9047;53.486;10.218;2023-04-03T14:23:54;2.75;;;0.98;;
17844;SDS011;9047;53.486;10.218;2023-04-03T14:26:22;2.88;;;1.17;;
17844;SDS011;9047;53.486;10.218;2023-04-03T14:28:52;3.28;;;1.00;;
17844;SDS011;9047;53.486;10.218;2023-04-03T14:31:22;3.22;;;1.00;;
17844;SDS011;9047;53.486;10.218;2023-04-03T14:34:10;1.98;;;0.90;;
17844;SDS011;9047;53.486;10.218;2023-04-03T14:36:39;3.28;;;0.82;;
17844;SDS011;9047;53.486;10.218;2023-04-03T14:39:10;3.20;;;1.00;;
17844;SDS011;9047;53.486;10.218;2023-04-03T14:41:42;3.33;;;1.00;;
17844;SDS011;9047;53.486;10.218;2023-04-03T14:44:09;3.50;;;1.00;;
17844;SDS011;9047;53.486;10.218;2023-04-03T14:46:36;3.13;;;1.00;;
17844;SDS011;9047;53.486;10.218;2023-04-03T14:49:06;3.30;;;0.90;;
17844;SDS011;9047;53.486;10.218;2023-04-03T14:51:40;2.33;;;1.00;;
17844;SDS011;9047;53.486;10.218;2023-04-03T14:54:11;2.42;;;0.90;;
17844;SDS011;9047;53.486;10.218;2023-04-03T14:56:40;2.17;;;0.90;;
17844;SDS011;9047;53.486;10.218;2023-04-03T14:59:09;3.33;;;1.17;;
17844;SDS011;9047;53.486;10.218;2023-04-03T15:01:37;2.15;;;0.88;;
17844;SDS011;9047;53.486;10.218;2023-04-03T15:04:08;3.08;;;1.08;;
17844;SDS011;9047;53.486;10.218;2023-04-03T15:06:37;2.55;;;1.00;;
17844;SDS011;9047;53.486;10.218;2023-04-03T15:09:13;1.50;;;0.90;;
17844;SDS011;9047;53.486;10.218;2023-04-03T15:11:46;2.17;;;0.85;;
17844;SDS011;9047;53.486;10.218;2023-04-03T15:14:16;3.25;;;1.00;;
17844;SDS011;9047;53.486;10.218;2023-04-03T15:16:43;2.88;;;0.90;;
17844;SDS011;9047;53.486;10.218;2023-04-03T15:19:11;2.05;;;0.73;;
17844;SDS011;9047;53.486;10.218;2023-04-03T15:21:38;3.30;;;1.00;;
17844;SDS011;9047;53.486;10.218;2023-04-03T15:24:15;2.45;;;1.02;;
17844;SDS011;9047;53.486;10.218;2023-04-03T15:26:43;2.85;;;1.23;;
17844;SDS011;9047;53.486;10.218;2023-04-03T15:29:12;2.83;;;1.17;;
17844;SDS011;9047;53.486;10.218;2023-04-03T15:31:40;1.77;;;0.93;;
17844;SDS011;9047;53.486;10.218;2023-04-03T15:34:09;2.40;;;1.00;;
17844;SDS011;9047;53.486;10.218;2023-04-03T15:36:40;2.03;;;1.02;;
17844;SDS011;9047;53.486;10.218;2023-04-03T15:39:26;4.55;;;1.10;;
17844;SDS011;9047;53.486;10.218;2023-04-03T15:41:54;2.85;;;1.15;;
17844;SDS011;9047;53.486;10.218;2023-04-03T15:44:24;1.90;;;1.02;;
17844;SDS011;9047;53.486;10.218;2023-04-03T15:46:53;2.60;;;1.00;;